Genius — 2CPA7 — position and weather

sailwx.info

Track history (hours):
 
Tides and Currents Weather Stations Pressure Air Temp Water Temp Dewpoint Dewpoint Depression Visibility Wind Speed Wind Dir Waves Ship Positions

Genius

Last reported at 2014-Oct-31 04:31 UTC. Time now 2014-Oct-31 06:15 UTC.
Position S 33°13' E 151°41'.

Length 288 m; draft 8.3 m.

Type: Cargo ship. MMSI: 235074615.

Date/timePositionNaut miles runAvg speedWind from/ knotsBaromVisibWave heightAir tempDewpointWater temp
2014-Oct-31 04:31S 33°13' E 151°41'0 0.0
2014-Oct-31 03:31S 33°13' E 151°41'0 0.0
2014-Oct-31 02:28S 33°13' E 151°41'0 0.0
2014-Oct-31 01:19S 33°13' E 151°41'0 0.0
2014-Oct-30 22:30S 33°13' E 151°41'0 0.0
2014-Oct-30 21:30S 33°13' E 151°41'0 0.0
2014-Oct-30 20:33S 33°13' E 151°41'0 0.0
2014-Oct-30 19:12S 33°13' E 151°41'0 0.0
2014-Oct-30 18:24S 33°13' E 151°41'0 0.0
2014-Oct-30 17:33S 33°13' E 151°41'0 0.0
2014-Oct-30 16:27S 33°13' E 151°41'0 0.0
2014-Oct-30 15:30S 33°13' E 151°41'0 0.1
2014-Oct-30 14:33S 33°13' E 151°41'0 0.1
2014-Oct-30 13:33S 33°13' E 151°41'0 0.1
2014-Oct-30 12:33S 33°13' E 151°41'0 0.1
2014-Oct-30 11:29S 33°13' E 151°41'0 0.0
2014-Oct-30 10:32S 33°13' E 151°41'0 0.0
2014-Oct-30 09:29S 33°13' E 151°41'0 0.0
2014-Oct-30 08:32S 33°13' E 151°41'0 0.1
2014-Oct-30 07:23S 33°13' E 151°41'0 0.1
2014-Oct-30 06:29S 33°13' E 151°41'0 0.0
2014-Oct-30 05:29S 33°13' E 151°41'0 0.1
2014-Oct-30 04:32S 33°13' E 151°41'0 0.0
2014-Oct-30 03:33S 33°13' E 151°41'0 0.0
2014-Oct-30 02:10S 33°13' E 151°41'15 1.2
2014-Oct-29 14:09S 33°02' E 151°52'711.1
2014-Oct-29 13:33S 32°57' E 151°57'1414.2
2014-Oct-29 12:33S 32°57' E 152°14'1413.9
2014-Oct-29 11:34S 33°00' E 152°30'127 2.6
2014-Oct-27 11:30S 33°07' E 155°02'4 4.1
2014-Oct-27 10:34S 33°03' E 154°59'4 4.0
2014-Oct-27 09:34S 32°60' E 154°56'8 4.1
2014-Oct-27 07:34S 32°53' E 154°52'4 4.3
2014-Oct-27 06:33S 32°49' E 154°49'5 4.4
2014-Oct-27 05:23S 32°45' E 154°46'4 4.7
2014-Oct-27 04:30S 32°41' E 154°43'7 4.8
2014-Oct-27 03:04S 32°36' E 154°38'3 4.8
2014-Oct-27 02:31S 32°34' E 154°36'4 4.6
2014-Oct-27 01:33S 32°30' E 154°33'9 9.4
2014-Oct-27 00:33S 32°31' E 154°21'2914.1
2014-Oct-26 22:32S 32°38' E 153°49'6 4.3
2014-Oct-26 21:13S 32°41' E 153°43'1 1.4
2014-Oct-26 20:32S 32°42' E 153°44'1 1.3
2014-Oct-26 19:26S 32°42' E 153°46'1 1.3
2014-Oct-26 18:28S 32°42' E 153°47'1 1.5
2014-Oct-26 17:31S 32°42' E 153°49'2 1.4
2014-Oct-26 16:15S 32°41' E 153°51'1 1.3
2014-Oct-26 15:10S 32°41' E 153°53'1 1.4
2014-Oct-26 14:21S 32°40' E 153°54'1 1.1
2014-Oct-26 13:29S 32°40' E 153°55'1 1.2
2014-Oct-26 12:33S 32°39' E 153°56'1 1.1
2014-Oct-26 11:29S 32°38' E 153°57'1 1.2
2014-Oct-26 10:30S 32°38' E 153°58'1 1.4
2014-Oct-26 09:31S 32°37' E 153°60'1 1.5
2014-Oct-26 08:33S 32°36' E 154°01'2 1.6
2014-Oct-26 07:33S 32°35' E 154°02'2 1.8
2014-Oct-26 06:33S 32°34' E 154°04'2 2.0
2014-Oct-26 05:33S 32°32' E 154°06'2 2.2
2014-Oct-26 04:33S 32°31' E 154°08'2 2.5
2014-Oct-26 03:33S 32°28' E 154°09'3 2.6
2014-Oct-26 02:33S 32°26' E 154°10'3 2.8
2014-Oct-26 01:32S 32°23' E 154°11'3 2.6
2014-Oct-26 00:32S 32°21' E 154°12'13 3.0
2014-Oct-25 20:15S 32°08' E 154°10'25613.5
2014-Oct-25 01:19S 27°51' E 154°06'3415.7
2014-Oct-24 23:06S 27°17' E 154°06'1015.4
2014-Oct-24 22:29S 27°07' E 154°06'1415.2
2014-Oct-24 21:32S 26°53' E 154°06'1515.2
2014-Oct-24 20:33S 26°38' E 154°06'1515.5
2014-Oct-24 19:33S 26°23' E 154°06'1615.5
2014-Oct-24 18:33S 26°07' E 154°06'1515.5
2014-Oct-24 17:34S 25°52' E 154°06'1514.7
2014-Oct-24 16:33S 25°37' E 154°05'2914.1
2014-Oct-24 14:28S 25°07' E 154°06'  
Track history (hours):
 
Tides and Currents Weather Stations Pressure Air Temp Water Temp Dewpoint Dewpoint Depression Visibility Wind Speed Wind Dir Waves Ship Positions

Genius

Last reported at 2014-Oct-31 04:31 UTC. Time now 2014-Oct-31 06:15 UTC.
Position S 33°13' E 151°41'.

Length 288 m; draft 8.3 m.

Type: Cargo ship. MMSI: 235074615.

Date/timePositionNaut miles runAvg speedWind from/ knotsBaromVisibWave heightAir tempDewpointWater temp
2014-Oct-31 04:31S 33°13' E 151°41'0 0.0
2014-Oct-31 03:31S 33°13' E 151°41'0 0.0
2014-Oct-31 02:28S 33°13' E 151°41'0 0.0
2014-Oct-31 01:19S 33°13' E 151°41'0 0.0
2014-Oct-30 22:30S 33°13' E 151°41'0 0.0
2014-Oct-30 21:30S 33°13' E 151°41'0 0.0
2014-Oct-30 20:33S 33°13' E 151°41'0 0.0
2014-Oct-30 19:12S 33°13' E 151°41'0 0.0
2014-Oct-30 18:24S 33°13' E 151°41'0 0.0
2014-Oct-30 17:33S 33°13' E 151°41'0 0.0
2014-Oct-30 16:27S 33°13' E 151°41'0 0.0
2014-Oct-30 15:30S 33°13' E 151°41'0 0.1
2014-Oct-30 14:33S 33°13' E 151°41'0 0.1
2014-Oct-30 13:33S 33°13' E 151°41'0 0.1
2014-Oct-30 12:33S 33°13' E 151°41'0 0.1
2014-Oct-30 11:29S 33°13' E 151°41'0 0.0
2014-Oct-30 10:32S 33°13' E 151°41'0 0.0
2014-Oct-30 09:29S 33°13' E 151°41'0 0.0
2014-Oct-30 08:32S 33°13' E 151°41'0 0.1
2014-Oct-30 07:23S 33°13' E 151°41'0 0.1
2014-Oct-30 06:29S 33°13' E 151°41'0 0.0
2014-Oct-30 05:29S 33°13' E 151°41'0 0.1
2014-Oct-30 04:32S 33°13' E 151°41'0 0.0
2014-Oct-30 03:33S 33°13' E 151°41'0 0.0
2014-Oct-30 02:10S 33°13' E 151°41'15 1.2
2014-Oct-29 14:09S 33°02' E 151°52'711.1
2014-Oct-29 13:33S 32°57' E 151°57'1414.2
2014-Oct-29 12:33S 32°57' E 152°14'1413.9
2014-Oct-29 11:34S 33°00' E 152°30'127 2.6
2014-Oct-27 11:30S 33°07' E 155°02'4 4.1
2014-Oct-27 10:34S 33°03' E 154°59'4 4.0
2014-Oct-27 09:34S 32°60' E 154°56'8 4.1
2014-Oct-27 07:34S 32°53' E 154°52'4 4.3
2014-Oct-27 06:33S 32°49' E 154°49'5 4.4
2014-Oct-27 05:23S 32°45' E 154°46'4 4.7
2014-Oct-27 04:30S 32°41' E 154°43'7 4.8
2014-Oct-27 03:04S 32°36' E 154°38'3 4.8
2014-Oct-27 02:31S 32°34' E 154°36'4 4.6
2014-Oct-27 01:33S 32°30' E 154°33'9 9.4
2014-Oct-27 00:33S 32°31' E 154°21'2914.1
2014-Oct-26 22:32S 32°38' E 153°49'6 4.3
2014-Oct-26 21:13S 32°41' E 153°43'1 1.4
2014-Oct-26 20:32S 32°42' E 153°44'1 1.3
2014-Oct-26 19:26S 32°42' E 153°46'1 1.3
2014-Oct-26 18:28S 32°42' E 153°47'1 1.5
2014-Oct-26 17:31S 32°42' E 153°49'2 1.4
2014-Oct-26 16:15S 32°41' E 153°51'1 1.3
2014-Oct-26 15:10S 32°41' E 153°53'1 1.4
2014-Oct-26 14:21S 32°40' E 153°54'1 1.1
2014-Oct-26 13:29S 32°40' E 153°55'1 1.2
2014-Oct-26 12:33S 32°39' E 153°56'1 1.1
2014-Oct-26 11:29S 32°38' E 153°57'1 1.2
2014-Oct-26 10:30S 32°38' E 153°58'1 1.4
2014-Oct-26 09:31S 32°37' E 153°60'1 1.5
2014-Oct-26 08:33S 32°36' E 154°01'2 1.6
2014-Oct-26 07:33S 32°35' E 154°02'2 1.8
2014-Oct-26 06:33S 32°34' E 154°04'2 2.0
2014-Oct-26 05:33S 32°32' E 154°06'2 2.2
2014-Oct-26 04:33S 32°31' E 154°08'2 2.5
2014-Oct-26 03:33S 32°28' E 154°09'3 2.6
2014-Oct-26 02:33S 32°26' E 154°10'3 2.8
2014-Oct-26 01:32S 32°23' E 154°11'3 2.6
2014-Oct-26 00:32S 32°21' E 154°12'13 3.0
2014-Oct-25 20:15S 32°08' E 154°10'25613.5
2014-Oct-25 01:19S 27°51' E 154°06'3415.7
2014-Oct-24 23:06S 27°17' E 154°06'1015.4
2014-Oct-24 22:29S 27°07' E 154°06'1415.2
2014-Oct-24 21:32S 26°53' E 154°06'1515.2
2014-Oct-24 20:33S 26°38' E 154°06'1515.5
2014-Oct-24 19:33S 26°23' E 154°06'1615.5
2014-Oct-24 18:33S 26°07' E 154°06'1515.5
2014-Oct-24 17:34S 25°52' E 154°06'1514.7
2014-Oct-24 16:33S 25°37' E 154°05'2914.1
2014-Oct-24 14:28S 25°07' E 154°06'  

Dump ship's entire track history